sensor_id;sensor_type;location;lat;lon;timestamp;pressure;altitude;pressure_sealevel;temperature;humidity
39449;BME280;25151;45.566;9.382;2022-09-13T00:01:13;99623.44;;;28.13;55.72
39449;BME280;25151;45.566;9.382;2022-09-13T00:04:13;99612.06;;;28.08;55.61
39449;BME280;25151;45.566;9.382;2022-09-13T00:07:14;99612.34;;;28.10;55.85
39449;BME280;25151;45.566;9.382;2022-09-13T00:10:14;99606.13;;;28.06;56.16
39449;BME280;25151;45.566;9.382;2022-09-13T00:13:16;99621.13;;;28.12;55.62
39449;BME280;25151;45.566;9.382;2022-09-13T00:16:18;99625.22;;;28.11;56.07
39449;BME280;25151;45.566;9.382;2022-09-13T00:19:19;99620.34;;;28.11;56.19
39449;BME280;25151;45.566;9.382;2022-09-13T00:22:20;99618.53;;;28.08;55.72
39449;BME280;25151;45.566;9.382;2022-09-13T00:25:20;99620.84;;;28.10;56.14
39449;BME280;25151;45.566;9.382;2022-09-13T00:28:21;99623.66;;;28.10;55.86
39449;BME280;25151;45.566;9.382;2022-09-13T00:31:24;99624.44;;;28.10;55.81
39449;BME280;25151;45.566;9.382;2022-09-13T00:34:26;99623.66;;;28.10;55.72
39449;BME280;25151;45.566;9.382;2022-09-13T00:37:27;99620.06;;;28.09;55.66
39449;BME280;25151;45.566;9.382;2022-09-13T00:40:28;99622.13;;;28.09;55.96
39449;BME280;25151;45.566;9.382;2022-09-13T00:43:51;99607.94;;;28.09;55.39
39449;BME280;25151;45.566;9.382;2022-09-13T00:46:53;99608.44;;;28.07;55.41
39449;BME280;25151;45.566;9.382;2022-09-13T00:49:58;99605.13;;;28.09;55.36
39449;BME280;25151;45.566;9.382;2022-09-13T00:53:23;99606.41;;;28.08;55.66
39449;BME280;25151;45.566;9.382;2022-09-13T00:56:42;99602.78;;;28.07;55.72
39449;BME280;25151;45.566;9.382;2022-09-13T00:59:47;99604.59;;;28.05;55.75
39449;BME280;25151;45.566;9.382;2022-09-13T01:03:04;99598.41;;;28.06;55.85
39449;BME280;25151;45.566;9.382;2022-09-13T01:06:10;99606.38;;;28.02;55.57
39449;BME280;25151;45.566;9.382;2022-09-13T01:09:11;99607.66;;;28.07;55.69
39449;BME280;25151;45.566;9.382;2022-09-13T01:12:25;99597.59;;;28.00;55.41
39449;BME280;25151;45.566;9.382;2022-09-13T01:15:31;99606.13;;;28.06;55.72
39449;BME280;25151;45.566;9.382;2022-09-13T01:18:31;99611.78;;;28.06;55.59
39449;BME280;25151;45.566;9.382;2022-09-13T01:28:16;99594.78;;;28.06;55.60
39449;BME280;25151;45.566;9.382;2022-09-13T01:34:51;99586.81;;;28.04;55.74
39449;BME280;25151;45.566;9.382;2022-09-13T01:45:08;99587.56;;;28.05;55.73
39449;BME280;25151;45.566;9.382;2022-09-13T01:51:58;99580.38;;;28.04;55.78
39449;BME280;25151;45.566;9.382;2022-09-13T01:55:51;99570.53;;;27.99;55.61
39449;BME280;25151;45.566;9.382;2022-09-13T01:58:54;99581.63;;;28.03;55.75
39449;BME280;25151;45.566;9.382;2022-09-13T02:02:07;99577.00;;;28.00;55.74
39449;BME280;25151;45.566;9.382;2022-09-13T02:08:34;99571.59;;;28.02;55.67
39449;BME280;25151;45.566;9.382;2022-09-13T02:11:38;99568.75;;;28.02;55.87
39449;BME280;25151;45.566;9.382;2022-09-13T02:14:43;99570.81;;;28.01;55.83
39449;BME280;25151;45.566;9.382;2022-09-13T02:17:49;99570.03;;;28.01;55.64
39449;BME280;25151;45.566;9.382;2022-09-13T02:20:59;99562.81;;;28.00;55.40
39449;BME280;25151;45.566;9.382;2022-09-13T02:24:23;99564.38;;;28.01;55.41
39449;BME280;25151;45.566;9.382;2022-09-13T02:27:27;99557.94;;;28.00;55.56
39449;BME280;25151;45.566;9.382;2022-09-13T02:30:32;99555.34;;;27.97;55.29
39449;BME280;25151;45.566;9.382;2022-09-13T02:33:46;99552.25;;;28.00;55.46
39449;BME280;25151;45.566;9.382;2022-09-13T02:36:49;99549.91;;;27.99;55.32
39449;BME280;25151;45.566;9.382;2022-09-13T02:39:56;99557.66;;;27.98;55.69
39449;BME280;25151;45.566;9.382;2022-09-13T02:43:04;99546.56;;;27.94;55.84
39449;BME280;25151;45.566;9.382;2022-09-13T02:46:20;99549.91;;;27.99;55.83
39449;BME280;25151;45.566;9.382;2022-09-13T02:56:38;99537.03;;;27.98;55.71
39449;BME280;25151;45.566;9.382;2022-09-13T02:59:41;99537.03;;;27.98;55.76
39449;BME280;25151;45.566;9.382;2022-09-13T03:02:43;99539.34;;;27.99;55.26
39449;BME280;25151;45.566;9.382;2022-09-13T03:05:46;99538.31;;;27.97;55.69
39449;BME280;25151;45.566;9.382;2022-09-13T03:08:46;99534.72;;;27.96;55.68
39449;BME280;25151;45.566;9.382;2022-09-13T03:22:37;99529.06;;;27.96;55.20
39449;BME280;25151;45.566;9.382;2022-09-13T03:26:07;99529.81;;;27.97;55.34
39449;BME280;25151;45.566;9.382;2022-09-13T03:29:27;99541.16;;;27.97;55.30
39449;BME280;25151;45.566;9.382;2022-09-13T03:32:40;99535.50;;;27.97;55.74
39449;BME280;25151;45.566;9.382;2022-09-13T03:38:59;99548.38;;;27.98;55.25
39449;BME280;25151;45.566;9.382;2022-09-13T03:42:11;99547.84;;;27.93;55.54
39449;BME280;25151;45.566;9.382;2022-09-13T03:45:16;99542.94;;;27.94;55.29
39449;BME280;25151;45.566;9.382;2022-09-13T03:48:19;99540.63;;;27.92;55.37
39449;BME280;25151;45.566;9.382;2022-09-13T03:51:21;99535.72;;;27.93;55.18
39449;BME280;25151;45.566;9.382;2022-09-13T03:54:28;99535.22;;;27.94;55.33
39449;BME280;25151;45.566;9.382;2022-09-13T03:57:29;99544.47;;;27.95;55.63
39449;BME280;25151;45.566;9.382;2022-09-13T04:00:29;99535.44;;;27.91;55.70
39449;BME280;25151;45.566;9.382;2022-09-13T04:03:30;99534.44;;;27.94;55.51
39449;BME280;25151;45.566;9.382;2022-09-13T04:06:31;99530.84;;;27.93;55.41
39449;BME280;25151;45.566;9.382;2022-09-13T04:09:31;99541.41;;;27.93;55.36
39449;BME280;25151;45.566;9.382;2022-09-13T04:12:32;99543.72;;;27.94;55.34
39449;BME280;25151;45.566;9.382;2022-09-13T04:15:33;99539.34;;;27.93;55.35
39449;BME280;25151;45.566;9.382;2022-09-13T04:18:34;99526.94;;;27.91;55.05
39449;BME280;25151;45.566;9.382;2022-09-13T04:21:34;99541.88;;;27.91;55.38
39449;BME280;25151;45.566;9.382;2022-09-13T04:24:35;99546.28;;;27.92;55.65
39449;BME280;25151;45.566;9.382;2022-09-13T04:27:36;99545.00;;;27.93;55.44
39449;BME280;25151;45.566;9.382;2022-09-13T04:30:37;99547.06;;;27.93;55.27
39449;BME280;25151;45.566;9.382;2022-09-13T04:33:38;99537.78;;;27.92;55.29
39449;BME280;25151;45.566;9.382;2022-09-13T04:36:40;99532.91;;;27.93;55.53
39449;BME280;25151;45.566;9.382;2022-09-13T04:39:41;99537.78;;;27.92;55.19
39449;BME280;25151;45.566;9.382;2022-09-13T04:42:44;99549.13;;;27.92;55.43
39449;BME280;25151;45.566;9.382;2022-09-13T04:45:45;99547.06;;;27.93;55.27
39449;BME280;25151;45.566;9.382;2022-09-13T04:48:51;99546.28;;;27.92;55.10
39449;BME280;25151;45.566;9.382;2022-09-13T04:51:51;99543.94;;;27.91;55.38
39449;BME280;25151;45.566;9.382;2022-09-13T04:54:52;99538.28;;;27.85;55.15
39449;BME280;25151;45.566;9.382;2022-09-13T04:57:53;99541.34;;;27.87;55.23
39449;BME280;25151;45.566;9.382;2022-09-13T05:01:07;99548.84;;;27.90;55.37
39449;BME280;25151;45.566;9.382;2022-09-13T05:04:08;99536.97;;;27.86;55.49
39449;BME280;25151;45.566;9.382;2022-09-13T05:07:09;99553.97;;;27.86;55.20
39449;BME280;25151;45.566;9.382;2022-09-13T05:10:10;99553.75;;;27.90;55.21
39449;BME280;25151;45.566;9.382;2022-09-13T05:13:10;99544.47;;;27.89;55.16
39449;BME280;25151;45.566;9.382;2022-09-13T05:16:11;99543.19;;;27.90;55.36
39449;BME280;25151;45.566;9.382;2022-09-13T05:19:12;99548.84;;;27.90;54.90
39449;BME280;25151;45.566;9.382;2022-09-13T05:22:12;99556.81;;;27.86;55.04
39449;BME280;25151;45.566;9.382;2022-09-13T05:25:13;99564.31;;;27.89;55.19
39449;BME280;25151;45.566;9.382;2022-09-13T05:28:13;99575.63;;;27.89;54.97
39449;BME280;25151;45.566;9.382;2022-09-13T05:31:23;99580.31;;;27.92;55.37
39449;BME280;25151;45.566;9.382;2022-09-13T05:34:27;99588.81;;;27.92;54.99
39449;BME280;25151;45.566;9.382;2022-09-13T05:37:27;99600.13;;;27.92;55.04
39449;BME280;25151;45.566;9.382;2022-09-13T05:40:28;99596.00;;;27.93;55.04
39449;BME280;25151;45.566;9.382;2022-09-13T05:43:32;99601.13;;;27.89;54.65
39449;BME280;25151;45.566;9.382;2022-09-13T05:46:33;99581.00;;;27.82;53.33
39449;BME280;25151;45.566;9.382;2022-09-13T05:49:36;99580.47;;;27.78;52.54
39449;BME280;25151;45.566;9.382;2022-09-13T05:52:36;99569.38;;;27.74;51.30
39449;BME280;25151;45.566;9.382;2022-09-13T05:55:37;99559.78;;;27.71;50.42
39449;BME280;25151;45.566;9.382;2022-09-13T05:58:39;99553.34;;;27.71;49.78
39449;BME280;25151;45.566;9.382;2022-09-13T06:01:40;99553.34;;;27.71;49.29
39449;BME280;25151;45.566;9.382;2022-09-13T06:04:41;99551.53;;;27.68;48.38
39449;BME280;25151;45.566;9.382;2022-09-13T06:07:42;99549.72;;;27.65;47.99
39449;BME280;25151;45.566;9.382;2022-09-13T06:10:43;99544.06;;;27.65;48.05
39449;BME280;25151;45.566;9.382;2022-09-13T06:13:43;99549.47;;;27.68;47.92
39449;BME280;25151;45.566;9.382;2022-09-13T06:16:44;99545.13;;;27.73;48.04
39449;BME280;25151;45.566;9.382;2022-09-13T06:19:44;99542.78;;;27.71;47.83
39449;BME280;25151;45.566;9.382;2022-09-13T06:22:47;99558.56;;;27.78;48.08
39449;BME280;25151;45.566;9.382;2022-09-13T06:25:47;99546.69;;;27.74;48.44
39449;BME280;25151;45.566;9.382;2022-09-13T06:28:51;99549.59;;;27.80;48.46
39449;BME280;25151;45.566;9.382;2022-09-13T06:31:52;99533.84;;;27.79;48.75
39449;BME280;25151;45.566;9.382;2022-09-13T06:34:52;99530.25;;;27.78;48.89
39449;BME280;25151;45.566;9.382;2022-09-13T06:37:56;99504.75;;;27.78;49.12
39449;BME280;25151;45.566;9.382;2022-09-13T06:41:02;99512.47;;;27.78;48.96
39449;BME280;25151;45.566;9.382;2022-09-13T06:44:04;99539.03;;;27.80;49.10
39449;BME280;25151;45.566;9.382;2022-09-13T06:47:05;99549.59;;;27.80;49.40
39449;BME280;25151;45.566;9.382;2022-09-13T06:50:06;99550.34;;;27.80;49.42
39449;BME280;25151;45.566;9.382;2022-09-13T06:53:07;99542.09;;;27.82;49.75
39449;BME280;25151;45.566;9.382;2022-09-13T06:56:27;99537.22;;;27.83;49.81
39449;BME280;25151;45.566;9.382;2022-09-13T06:59:29;99530.78;;;27.82;49.91
39449;BME280;25151;45.566;9.382;2022-09-13T07:02:30;99546.22;;;27.81;49.93
39449;BME280;25151;45.566;9.382;2022-09-13T07:05:32;99560.41;;;27.81;49.99
39449;BME280;25151;45.566;9.382;2022-09-13T07:08:32;99561.69;;;27.80;50.37
39449;BME280;25151;45.566;9.382;2022-09-13T07:11:36;99560.91;;;27.80;50.53
39449;BME280;25151;45.566;9.382;2022-09-13T07:14:36;99549.84;;;27.82;50.03
39449;BME280;25151;45.566;9.382;2022-09-13T07:17:37;99534.91;;;27.81;50.14
39449;BME280;25151;45.566;9.382;2022-09-13T07:20:38;99532.84;;;27.82;50.12
39449;BME280;25151;45.566;9.382;2022-09-13T07:23:38;99535.16;;;27.83;50.54
39449;BME280;25151;45.566;9.382;2022-09-13T07:26:39;99549.06;;;27.81;50.33
39449;BME280;25151;45.566;9.382;2022-09-13T07:29:39;99551.38;;;27.83;50.51
39449;BME280;25151;45.566;9.382;2022-09-13T07:32:40;99540.03;;;27.83;50.38
39449;BME280;25151;45.566;9.382;2022-09-13T07:35:41;99543.66;;;27.83;50.61
39449;BME280;25151;45.566;9.382;2022-09-13T07:38:43;99556.56;;;27.84;50.54
39449;BME280;25151;45.566;9.382;2022-09-13T07:41:47;99559.88;;;27.83;50.56
39449;BME280;25151;45.566;9.382;2022-09-13T07:44:47;99563.22;;;27.81;50.26
39449;BME280;25151;45.566;9.382;2022-09-13T07:47:48;99562.47;;;27.86;50.58
39449;BME280;25151;45.566;9.382;2022-09-13T07:51:02;99556.81;;;27.86;50.83
39449;BME280;25151;45.566;9.382;2022-09-13T07:54:09;99559.66;;;27.86;51.11
39449;BME280;25151;45.566;9.382;2022-09-13T07:57:10;99564.81;;;27.88;51.00
39449;BME280;25151;45.566;9.382;2022-09-13T08:00:11;99562.00;;;27.88;50.73
39449;BME280;25151;45.566;9.382;2022-09-13T08:03:12;99562.75;;;27.88;50.89
39449;BME280;25151;45.566;9.382;2022-09-13T08:06:12;99557.09;;;27.88;51.32
39449;BME280;25151;45.566;9.382;2022-09-13T08:09:13;99549.09;;;27.87;50.92
39449;BME280;25151;45.566;9.382;2022-09-13T08:12:14;99571.81;;;27.92;50.97
39449;BME280;25151;45.566;9.382;2022-09-13T08:15:15;99570.50;;;27.93;51.05
39449;BME280;25151;45.566;9.382;2022-09-13T08:18:16;99583.38;;;27.94;51.11
39449;BME280;25151;45.566;9.382;2022-09-13T08:21:18;99594.22;;;27.96;50.90
39449;BME280;25151;45.566;9.382;2022-09-13T08:24:20;99586.75;;;27.93;51.15
39449;BME280;25151;45.566;9.382;2022-09-13T08:27:20;99590.88;;;27.98;51.14
39449;BME280;25151;45.566;9.382;2022-09-13T08:30:21;99592.16;;;27.97;51.05
39449;BME280;25151;45.566;9.382;2022-09-13T08:33:22;99589.34;;;27.97;51.17
39449;BME280;25151;45.566;9.382;2022-09-13T08:36:23;99592.16;;;27.97;51.54
39449;BME280;25151;45.566;9.382;2022-09-13T08:39:24;99594.50;;;27.98;51.32
39449;BME280;25151;45.566;9.382;2022-09-13T08:46:00;99586.28;;;28.00;51.28
39449;BME280;25151;45.566;9.382;2022-09-13T08:49:10;99590.13;;;28.03;51.29
39449;BME280;25151;45.566;9.382;2022-09-13T08:55:24;99589.88;;;28.01;51.36
39449;BME280;25151;45.566;9.382;2022-09-13T09:05:13;99590.94;;;28.09;51.57
39449;BME280;25151;45.566;9.382;2022-09-13T09:08:29;99593.78;;;28.09;51.42
39449;BME280;25151;45.566;9.382;2022-09-13T09:11:39;99593.25;;;28.10;51.49
39449;BME280;25151;45.566;9.382;2022-09-13T09:14:42;99595.31;;;28.10;51.48
39449;BME280;25151;45.566;9.382;2022-09-13T09:17:54;99592.78;;;28.12;51.92
39449;BME280;25151;45.566;9.382;2022-09-13T09:21:00;99589.94;;;28.12;51.60
39449;BME280;25151;45.566;9.382;2022-09-13T09:24:02;99585.81;;;28.13;51.83
39449;BME280;25151;45.566;9.382;2022-09-13T09:27:13;99569.31;;;28.11;51.97
39449;BME280;25151;45.566;9.382;2022-09-13T09:30:14;99565.97;;;28.13;52.11
39449;BME280;25151;45.566;9.382;2022-09-13T09:36:44;99568.03;;;28.18;51.58
39449;BME280;25151;45.566;9.382;2022-09-13T09:39:48;99568.03;;;28.18;51.86
39449;BME280;25151;45.566;9.382;2022-09-13T09:42:50;99567.28;;;28.17;52.06
39449;BME280;25151;45.566;9.382;2022-09-13T09:45:54;99569.59;;;28.19;51.73
39449;BME280;25151;45.566;9.382;2022-09-13T09:49:04;99570.38;;;28.19;52.07
39449;BME280;25151;45.566;9.382;2022-09-13T09:52:33;99563.91;;;28.19;51.82
39449;BME280;25151;45.566;9.382;2022-09-13T09:55:45;99555.47;;;28.25;51.60
39449;BME280;25151;45.566;9.382;2022-09-13T09:58:46;99560.06;;;28.22;51.97
39449;BME280;25151;45.566;9.382;2022-09-13T10:01:47;99550.78;;;28.22;52.00
39449;BME280;25151;45.566;9.382;2022-09-13T10:05:05;99551.56;;;28.22;51.89
39449;BME280;25151;45.566;9.382;2022-09-13T10:08:07;99548.25;;;28.24;51.67
39449;BME280;25151;45.566;9.382;2022-09-13T10:11:23;99543.84;;;28.23;51.69
39449;BME280;25151;45.566;9.382;2022-09-13T10:14:41;99550.56;;;28.25;51.62
39449;BME280;25151;45.566;9.382;2022-09-13T10:17:43;99549.50;;;28.23;51.53
39449;BME280;25151;45.566;9.382;2022-09-13T10:21:00;99532.78;;;28.25;51.55
39449;BME280;25151;45.566;9.382;2022-09-13T10:24:22;99521.16;;;28.23;51.61
39449;BME280;25151;45.566;9.382;2022-09-13T10:27:36;99524.75;;;28.23;51.61
39449;BME280;25151;45.566;9.382;2022-09-13T10:34:04;99522.97;;;28.26;51.97
39449;BME280;25151;45.566;9.382;2022-09-13T10:37:16;99522.72;;;28.29;51.94
39449;BME280;25151;45.566;9.382;2022-09-13T10:40:31;99517.31;;;28.26;51.53
39449;BME280;25151;45.566;9.382;2022-09-13T10:43:38;99512.94;;;28.30;51.74
39449;BME280;25151;45.566;9.382;2022-09-13T10:46:40;99506.78;;;28.32;51.93
39449;BME280;25151;45.566;9.382;2022-09-13T10:49:45;99497.50;;;28.31;51.84
39449;BME280;25151;45.566;9.382;2022-09-13T10:52:54;99503.97;;;28.37;51.61
39449;BME280;25151;45.566;9.382;2022-09-13T10:55:55;99479.44;;;28.34;51.64
39449;BME280;25151;45.566;9.382;2022-09-13T10:59:22;99474.31;;;28.38;52.07
39449;BME280;25151;45.566;9.382;2022-09-13T11:29:01;99463.25;;;28.46;51.98
39449;BME280;25151;45.566;9.382;2022-09-13T11:32:38;99450.88;;;28.43;52.27
39449;BME280;25151;45.566;9.382;2022-09-13T11:45:17;99455.78;;;28.49;52.07
39449;BME280;25151;45.566;9.382;2022-09-13T11:49:00;99452.44;;;28.50;52.39
39449;BME280;25151;45.566;9.382;2022-09-13T11:52:10;99442.91;;;28.48;52.04
39449;BME280;25151;45.566;9.382;2022-09-13T11:55:20;99444.44;;;28.49;52.37
39449;BME280;25151;45.566;9.382;2022-09-13T11:58:30;99445.97;;;28.50;52.23
39449;BME280;25151;45.566;9.382;2022-09-13T12:01:36;99444.69;;;28.51;52.40
39449;BME280;25151;45.566;9.382;2022-09-13T12:04:49;99435.16;;;28.48;52.82
39449;BME280;25151;45.566;9.382;2022-09-13T12:08:03;99441.84;;;28.51;52.31
39449;BME280;25151;45.566;9.382;2022-09-13T12:11:09;99438.00;;;28.48;52.54
39449;BME280;25151;45.566;9.382;2022-09-13T12:14:21;99441.84;;;28.51;52.39
39449;BME280;25151;45.566;9.382;2022-09-13T12:17:28;99440.59;;;28.52;52.32
39449;BME280;25151;45.566;9.382;2022-09-13T12:27:35;99432.84;;;28.52;52.68
39449;BME280;25151;45.566;9.382;2022-09-13T12:30:51;99423.28;;;28.50;52.28
39449;BME280;25151;45.566;9.382;2022-09-13T12:33:53;99420.72;;;28.52;52.85
39449;BME280;25151;45.566;9.382;2022-09-13T12:50:32;99419.69;;;28.55;52.91
39449;BME280;25151;45.566;9.382;2022-09-13T12:57:21;99414.81;;;28.55;52.67
39449;BME280;25151;45.566;9.382;2022-09-13T13:00:35;99407.03;;;28.50;52.75
39449;BME280;25151;45.566;9.382;2022-09-13T13:04:17;99406.78;;;28.54;52.53
39449;BME280;25151;45.566;9.382;2022-09-13T13:07:21;99403.72;;;28.52;52.66
39449;BME280;25151;45.566;9.382;2022-09-13T13:10:28;99406.28;;;28.50;52.67
39449;BME280;25151;45.566;9.382;2022-09-13T13:13:38;99401.63;;;28.47;52.91
39449;BME280;25151;45.566;9.382;2022-09-13T13:16:39;99406.28;;;28.50;52.68
39449;BME280;25151;45.566;9.382;2022-09-13T13:19:39;99415.06;;;28.52;52.51
39449;BME280;25151;45.566;9.382;2022-09-13T13:29:12;99406.28;;;28.50;52.77
39449;BME280;25151;45.566;9.382;2022-09-13T13:32:14;99408.63;;;28.51;52.45
39449;BME280;25151;45.566;9.382;2022-09-13T13:35:28;99406.78;;;28.54;53.32
39449;BME280;25151;45.566;9.382;2022-09-13T13:38:40;99403.19;;;28.53;52.87
39449;BME280;25151;45.566;9.382;2022-09-13T13:41:53;99399.81;;;28.55;53.01
39449;BME280;25151;45.566;9.382;2022-09-13T13:48:12;99391.31;;;28.55;52.83
39449;BME280;25151;45.566;9.382;2022-09-13T13:51:16;99385.13;;;28.51;52.87
39449;BME280;25151;45.566;9.382;2022-09-13T13:54:29;99393.66;;;28.56;52.75
39449;BME280;25151;45.566;9.382;2022-09-13T13:57:34;99384.09;;;28.54;52.59
39449;BME280;25151;45.566;9.382;2022-09-13T14:00:47;99380.78;;;28.55;52.72
39449;BME280;25151;45.566;9.382;2022-09-13T14:03:53;99378.69;;;28.50;52.66
39449;BME280;25151;45.566;9.382;2022-09-13T14:07:07;99371.47;;;28.49;52.87
39449;BME280;25151;45.566;9.382;2022-09-13T14:10:24;99360.91;;;28.50;52.49
39449;BME280;25151;45.566;9.382;2022-09-13T14:21:03;99356.25;;;28.47;52.84
39449;BME280;25151;45.566;9.382;2022-09-13T14:24:21;99349.81;;;28.46;52.77
39449;BME280;25151;45.566;9.382;2022-09-13T14:27:33;99353.94;;;28.45;52.28
39449;BME280;25151;45.566;9.382;2022-09-13T14:30:36;99350.56;;;28.47;52.50
39449;BME280;25151;45.566;9.382;2022-09-13T14:33:39;99343.38;;;28.46;52.43
39449;BME280;25151;45.566;9.382;2022-09-13T14:36:50;99348.00;;;28.49;52.81
39449;BME280;25151;45.566;9.382;2022-09-13T14:42:55;99339.50;;;28.49;52.72
39449;BME280;25151;45.566;9.382;2022-09-13T14:46:05;99337.44;;;28.49;53.13
39449;BME280;25151;45.566;9.382;2022-09-13T14:49:12;99332.53;;;28.50;52.83
39449;BME280;25151;45.566;9.382;2022-09-13T14:52:24;99328.41;;;28.51;52.77
39449;BME280;25151;45.566;9.382;2022-09-13T14:55:37;99326.38;;;28.51;52.59
39449;BME280;25151;45.566;9.382;2022-09-13T15:01:43;99325.31;;;28.49;53.01
39449;BME280;25151;45.566;9.382;2022-09-13T15:04:50;99333.31;;;28.50;53.30
39449;BME280;25151;45.566;9.382;2022-09-13T15:07:51;99326.88;;;28.50;52.88
39449;BME280;25151;45.566;9.382;2022-09-13T15:10:55;99337.19;;;28.47;53.26
39449;BME280;25151;45.566;9.382;2022-09-13T15:17:19;99320.69;;;28.46;52.91
39449;BME280;25151;45.566;9.382;2022-09-13T15:20:20;99336.66;;;28.49;53.00
39449;BME280;25151;45.566;9.382;2022-09-13T15:26:33;99327.91;;;28.47;53.11
39449;BME280;25151;45.566;9.382;2022-09-13T15:29:34;99332.03;;;28.46;52.94
39449;BME280;25151;45.566;9.382;2022-09-13T15:32:41;99337.44;;;28.49;52.90
39449;BME280;25151;45.566;9.382;2022-09-13T15:35:44;99338.97;;;28.50;53.02
39449;BME280;25151;45.566;9.382;2022-09-13T15:42:08;99325.31;;;28.49;53.28
39449;BME280;25151;45.566;9.382;2022-09-13T15:45:09;99319.66;;;28.49;53.48
39449;BME280;25151;45.566;9.382;2022-09-13T15:48:23;99320.97;;;28.48;53.38
39449;BME280;25151;45.566;9.382;2022-09-13T15:51:25;99320.97;;;28.48;52.95
39449;BME280;25151;45.566;9.382;2022-09-13T15:54:37;99331.00;;;28.49;52.96
39449;BME280;25151;45.566;9.382;2022-09-13T15:57:38;99328.41;;;28.51;53.25
39449;BME280;25151;45.566;9.382;2022-09-13T16:00:39;99328.41;;;28.51;53.30
39449;BME280;25151;45.566;9.382;2022-09-13T16:03:43;99328.94;;;28.49;53.14
39449;BME280;25151;45.566;9.382;2022-09-13T16:06:44;99333.31;;;28.50;53.20
39449;BME280;25151;45.566;9.382;2022-09-13T16:09:45;99312.44;;;28.48;52.92
39449;BME280;25151;45.566;9.382;2022-09-13T16:12:47;99318.88;;;28.48;52.92
39449;BME280;25151;45.566;9.382;2022-09-13T16:15:48;99318.34;;;28.50;53.22
39449;BME280;25151;45.566;9.382;2022-09-13T16:18:48;99319.66;;;28.49;53.01
39449;BME280;25151;45.566;9.382;2022-09-13T16:21:49;99316.81;;;28.49;53.13
39449;BME280;25151;45.566;9.382;2022-09-13T16:24:50;99321.19;;;28.50;52.85
39449;BME280;25151;45.566;9.382;2022-09-13T16:27:51;99313.47;;;28.45;52.90
39449;BME280;25151;45.566;9.382;2022-09-13T16:30:54;99319.66;;;28.49;53.20
39449;BME280;25151;45.566;9.382;2022-09-13T16:33:54;99316.84;;;28.43;53.13
39449;BME280;25151;45.566;9.382;2022-09-13T16:36:55;99320.44;;;28.49;53.21
39449;BME280;25151;45.566;9.382;2022-09-13T16:39:57;99310.09;;;28.46;53.44
39449;BME280;25151;45.566;9.382;2022-09-13T16:42:59;99324.56;;;28.48;53.43
39449;BME280;25151;45.566;9.382;2022-09-13T16:46:08;99323.78;;;28.48;53.14
39449;BME280;25151;45.566;9.382;2022-09-13T16:49:09;99328.16;;;28.49;53.23
39449;BME280;25151;45.566;9.382;2022-09-13T16:52:10;99324.03;;;28.50;53.66
39449;BME280;25151;45.566;9.382;2022-09-13T16:55:10;99323.03;;;28.47;53.51
39449;BME280;25151;45.566;9.382;2022-09-13T16:58:11;99308.56;;;28.45;53.74
39449;BME280;25151;45.566;9.382;2022-09-13T17:01:14;99313.72;;;28.47;53.28
39449;BME280;25151;45.566;9.382;2022-09-13T17:04:15;99316.03;;;28.42;53.75
39449;BME280;25151;45.566;9.382;2022-09-13T17:07:17;99321.22;;;28.44;53.60
39449;BME280;25151;45.566;9.382;2022-09-13T17:10:19;99322.75;;;28.45;53.30
39449;BME280;25151;45.566;9.382;2022-09-13T17:13:20;99327.13;;;28.46;53.62
39449;BME280;25151;45.566;9.382;2022-09-13T17:16:27;99333.84;;;28.43;53.83
39449;BME280;25151;45.566;9.382;2022-09-13T17:19:31;99330.50;;;28.45;53.43
39449;BME280;25151;45.566;9.382;2022-09-13T17:22:35;99331.50;;;28.41;53.27
39449;BME280;25151;45.566;9.382;2022-09-13T17:25:36;99341.84;;;28.45;53.34
39449;BME280;25151;45.566;9.382;2022-09-13T17:28:36;99328.16;;;28.37;53.43
39449;BME280;25151;45.566;9.382;2022-09-13T17:31:38;99346.47;;;28.42;53.23
39449;BME280;25151;45.566;9.382;2022-09-13T17:34:38;99343.88;;;28.38;53.37
39449;BME280;25151;45.566;9.382;2022-09-13T17:37:39;99349.56;;;28.38;53.83
39449;BME280;25151;45.566;9.382;2022-09-13T17:40:39;99350.59;;;28.41;53.85
39449;BME280;25151;45.566;9.382;2022-09-13T17:43:42;99350.06;;;28.42;53.72
39449;BME280;25151;45.566;9.382;2022-09-13T17:46:42;99365.03;;;28.43;53.78
39449;BME280;25151;45.566;9.382;2022-09-13T17:49:45;99365.53;;;28.41;53.73
39449;BME280;25151;45.566;9.382;2022-09-13T17:52:47;99363.22;;;28.40;54.08
39449;BME280;25151;45.566;9.382;2022-09-13T17:55:50;99364.00;;;28.40;53.97
39449;BME280;25151;45.566;9.382;2022-09-13T17:58:51;99367.88;;;28.43;53.77
39449;BME280;25151;45.566;9.382;2022-09-13T18:01:52;99369.66;;;28.40;54.05
39449;BME280;25151;45.566;9.382;2022-09-13T18:04:55;99376.63;;;28.45;53.61
39449;BME280;25151;45.566;9.382;2022-09-13T18:07:56;99380.00;;;28.43;53.94
39449;BME280;25151;45.566;9.382;2022-09-13T18:11:12;99382.56;;;28.41;54.09
39449;BME280;25151;45.566;9.382;2022-09-13T18:14:15;99381.25;;;28.42;54.09
39449;BME280;25151;45.566;9.382;2022-09-13T18:17:16;99385.66;;;28.43;53.91
39449;BME280;25151;45.566;9.382;2022-09-13T18:20:17;99391.34;;;28.43;53.84
39449;BME280;25151;45.566;9.382;2022-09-13T18:23:17;99397.00;;;28.43;54.41
39449;BME280;25151;45.566;9.382;2022-09-13T18:26:20;99392.59;;;28.42;54.16
39449;BME280;25151;45.566;9.382;2022-09-13T18:29:21;99389.25;;;28.38;54.18
39449;BME280;25151;45.566;9.382;2022-09-13T18:32:22;99382.03;;;28.37;54.01
39449;BME280;25151;45.566;9.382;2022-09-13T18:35:23;99408.34;;;28.43;54.12
39449;BME280;25151;45.566;9.382;2022-09-13T18:38:25;99392.09;;;28.38;53.97
39449;BME280;25151;45.566;9.382;2022-09-13T18:41:32;99399.06;;;28.43;54.37
39449;BME280;25151;45.566;9.382;2022-09-13T18:44:33;99403.69;;;28.40;53.93
39449;BME280;25151;45.566;9.382;2022-09-13T18:47:35;99404.47;;;28.41;54.33
39449;BME280;25151;45.566;9.382;2022-09-13T18:50:41;99406.53;;;28.40;54.65
39449;BME280;25151;45.566;9.382;2022-09-13T18:53:42;99415.56;;;28.45;54.61
39449;BME280;25151;45.566;9.382;2022-09-13T18:56:46;99425.38;;;28.43;54.45
39449;BME280;25151;45.566;9.382;2022-09-13T18:59:47;99430.25;;;28.43;54.63